createdAt,value
2023-03-05T00:00:07.440Z,13.30
2023-03-05T00:02:34.576Z,13.30
2023-03-05T00:05:08.988Z,13.30
2023-03-05T00:07:36.112Z,13.20
2023-03-05T00:10:21.628Z,13.20
2023-03-05T00:12:48.728Z,13.20
2023-03-05T00:15:15.753Z,13.20
2023-03-05T00:17:42.817Z,13.20
2023-03-05T00:20:10.407Z,13.20
2023-03-05T00:22:37.898Z,13.20
2023-03-05T00:25:05.638Z,13.20
2023-03-05T00:27:32.691Z,13.20
2023-03-05T00:29:59.849Z,13.20
2023-03-05T00:32:26.942Z,13.20
2023-03-05T00:34:56.932Z,13.20
2023-03-05T00:37:24.211Z,13.20
2023-03-05T00:40:10.922Z,13.20
2023-03-05T00:42:38.735Z,13.20
2023-03-05T00:45:07.756Z,13.20
2023-03-05T00:47:35.498Z,13.10
2023-03-05T00:50:03.941Z,13.10
2023-03-05T00:52:34.083Z,13.10
2023-03-05T00:55:16.468Z,13.10
2023-03-05T00:57:43.535Z,13.10
2023-03-05T01:00:15.040Z,13.10
2023-03-05T01:02:42.221Z,13.10
2023-03-05T01:05:13.128Z,13.10
2023-03-05T01:07:40.751Z,13.10
2023-03-05T01:10:08.964Z,13.10
2023-03-05T01:12:35.933Z,13.10
2023-03-05T01:15:21.521Z,13.00
2023-03-05T01:17:48.934Z,13.00
2023-03-05T01:20:19.940Z,13.00
2023-03-05T01:22:49.739Z,13.00
2023-03-05T01:25:17.831Z,13.00
2023-03-05T01:27:44.947Z,13.00
2023-03-05T01:30:21.147Z,13.00
2023-03-05T01:32:48.259Z,13.00
2023-03-05T01:35:21.838Z,13.00
2023-03-05T01:37:49.433Z,13.00
2023-03-05T01:40:20.214Z,13.00
2023-03-05T01:43:29.672Z,13.00
2023-03-05T01:46:16.780Z,13.00
2023-03-05T01:48:48.531Z,13.00
2023-03-05T01:51:19.207Z,13.00
2023-03-05T01:53:47.516Z,13.00
2023-03-05T01:56:15.756Z,13.00
2023-03-05T01:58:43.500Z,13.00
2023-03-05T02:01:10.734Z,13.00
2023-03-05T02:03:39.015Z,13.00
2023-03-05T02:06:06.206Z,13.00
2023-03-05T02:08:33.168Z,13.00
2023-03-05T02:11:02.965Z,13.00
2023-03-05T02:13:33.027Z,13.00
2023-03-05T02:16:02.262Z,12.90
2023-03-05T02:18:29.338Z,12.90
2023-03-05T02:20:56.434Z,12.90
2023-03-05T02:23:29.302Z,12.90
2023-03-05T02:25:56.834Z,12.90
2023-03-05T02:28:41.061Z,12.80
2023-03-05T02:31:16.899Z,12.80
2023-03-05T02:33:43.969Z,12.80
2023-03-05T02:36:13.877Z,12.80
2023-03-05T02:38:43.935Z,12.80
2023-03-05T02:41:11.054Z,12.80
2023-03-05T02:43:38.326Z,12.80
2023-03-05T02:46:05.652Z,12.80
2023-03-05T02:48:32.996Z,12.70
2023-03-05T02:51:00.998Z,12.70
2023-03-05T02:53:27.950Z,12.70
2023-03-05T02:55:54.956Z,12.70
2023-03-05T02:58:21.944Z,12.70
2023-03-05T03:00:48.937Z,12.70
2023-03-05T03:03:16.217Z,12.70
2023-03-05T03:06:02.221Z,12.70
2023-03-05T03:08:29.357Z,12.70
2023-03-05T03:10:56.668Z,12.70
2023-03-05T03:13:26.646Z,12.70
2023-03-05T03:16:03.094Z,12.80
2023-03-05T03:18:42.746Z,12.70
2023-03-05T03:21:24.817Z,12.70
2023-03-05T03:23:52.527Z,12.70
2023-03-05T03:26:19.585Z,12.70
2023-03-05T03:28:46.702Z,12.70
2023-03-05T03:31:13.841Z,12.70
2023-03-05T03:33:40.868Z,12.60
2023-03-05T03:36:08.273Z,12.60
2023-03-05T03:38:35.383Z,12.40
2023-03-05T03:41:02.369Z,12.40
2023-03-05T03:43:31.818Z,12.50
2023-03-05T03:45:58.812Z,12.50
2023-03-05T03:48:28.327Z,12.40
2023-03-05T03:50:55.266Z,12.40
2023-03-05T03:53:40.447Z,12.40
2023-03-05T03:56:07.706Z,12.30
2023-03-05T03:58:54.102Z,12.30
2023-03-05T04:01:21.797Z,12.30
2023-03-05T04:03:48.763Z,12.30
2023-03-05T04:06:25.105Z,12.30
2023-03-05T04:08:52.090Z,12.30
2023-03-05T04:11:19.535Z,12.40
2023-03-05T04:13:47.391Z,12.40
2023-03-05T04:16:33.309Z,12.40
2023-03-05T04:19:00.508Z,12.40
2023-03-05T04:21:27.801Z,12.50
2023-03-05T04:23:55.289Z,12.50
2023-03-05T04:26:22.265Z,12.50
2023-03-05T04:28:49.371Z,12.40
2023-03-05T04:31:17.491Z,12.40
2023-03-05T04:33:44.778Z,12.40
2023-03-05T04:36:11.811Z,12.30
2023-03-05T04:38:38.794Z,12.30
2023-03-05T04:41:17.754Z,12.20
2023-03-05T04:43:45.288Z,12.20
2023-03-05T04:46:15.159Z,12.10
2023-03-05T04:48:42.414Z,12.20
2023-03-05T04:51:12.604Z,12.20
2023-03-05T04:53:39.619Z,12.30
2023-03-05T04:56:09.972Z,12.30
2023-03-05T04:58:37.008Z,12.30
2023-03-05T05:01:05.756Z,12.30
2023-03-05T05:03:33.608Z,12.40
2023-03-05T05:06:03.258Z,12.40
2023-03-05T05:08:39.314Z,12.40
2023-03-05T05:11:08.346Z,12.40
2023-03-05T05:13:35.747Z,12.40
2023-03-05T05:16:06.002Z,12.40
2023-03-05T05:18:33.248Z,12.40
2023-03-05T05:21:06.755Z,12.40
2023-03-05T05:23:33.852Z,12.40
2023-03-05T05:26:02.661Z,12.40
2023-03-05T05:28:30.649Z,12.40
2023-03-05T05:31:01.113Z,12.40
2023-03-05T05:33:37.276Z,12.40
2023-03-05T05:36:05.967Z,12.40
2023-03-05T05:38:33.893Z,12.40
2023-03-05T05:41:15.790Z,12.30
2023-03-05T05:44:01.379Z,12.30
2023-03-05T05:46:29.119Z,12.30
2023-03-05T05:48:56.157Z,12.30
2023-03-05T05:51:23.996Z,12.30
2023-03-05T05:53:54.041Z,12.30
2023-03-05T05:56:39.424Z,12.30
2023-03-05T05:59:06.539Z,12.30
2023-03-05T06:01:34.987Z,12.30
2023-03-05T06:04:02.775Z,12.30
2023-03-05T06:06:35.058Z,12.30
2023-03-05T06:09:03.154Z,12.30
2023-03-05T06:11:30.306Z,12.40
2023-03-05T06:14:02.910Z,12.30
2023-03-05T06:16:35.974Z,12.40
2023-03-05T06:19:04.712Z,12.30
2023-03-05T06:21:32.537Z,12.30
2023-03-05T06:24:02.159Z,12.30
2023-03-05T06:26:29.371Z,12.40
2023-03-05T06:28:59.774Z,12.40
2023-03-05T06:31:37.319Z,12.30
2023-03-05T06:34:04.987Z,12.30
2023-03-05T06:36:32.169Z,12.30
2023-03-05T06:38:59.532Z,12.30
2023-03-05T06:41:45.309Z,12.20
2023-03-05T06:44:12.666Z,12.20
2023-03-05T06:46:39.970Z,12.20
2023-03-05T06:49:09.521Z,12.20
2023-03-05T06:51:55.387Z,12.30
2023-03-05T06:54:22.405Z,12.30
2023-03-05T06:57:10.432Z,12.30
2023-03-05T06:59:37.824Z,12.30
2023-03-05T07:02:04.816Z,12.30
2023-03-05T07:04:31.841Z,12.20
2023-03-05T07:07:00.522Z,12.10
2023-03-05T07:09:30.832Z,12.20
2023-03-05T07:12:07.641Z,12.20
2023-03-05T07:14:34.803Z,12.20
2023-03-05T07:17:01.859Z,12.20
2023-03-05T07:19:28.922Z,12.10
2023-03-05T07:21:56.024Z,12.10
2023-03-05T07:24:24.833Z,12.10
2023-03-05T07:26:51.967Z,12.20
2023-03-05T07:29:19.400Z,12.10
2023-03-05T07:32:05.644Z,12.20
2023-03-05T07:34:33.029Z,12.10
2023-03-05T07:37:00.377Z,12.10
2023-03-05T07:39:27.484Z,12.10
2023-03-05T07:41:55.332Z,12.10
2023-03-05T07:44:22.334Z,12.20
2023-03-05T07:46:49.267Z,12.20
2023-03-05T07:49:16.371Z,12.20
2023-03-05T07:51:43.335Z,12.10
2023-03-05T07:54:10.724Z,12.20
2023-03-05T07:56:37.721Z,12.20
2023-03-05T07:59:08.113Z,12.20
2023-03-05T08:01:35.350Z,12.20
2023-03-05T08:04:03.719Z,12.20
2023-03-05T08:06:33.905Z,12.10
2023-03-05T08:09:00.925Z,12.20
2023-03-05T08:11:30.745Z,12.20
2023-03-05T08:14:16.230Z,12.20
2023-03-05T08:16:43.283Z,12.30
2023-03-05T08:19:11.396Z,12.30
2023-03-05T08:21:41.091Z,12.40
2023-03-05T08:24:08.923Z,12.40
2023-03-05T08:26:40.416Z,12.50
2023-03-05T08:29:26.492Z,12.50
2023-03-05T08:31:54.087Z,12.50
2023-03-05T08:34:39.536Z,12.40
2023-03-05T08:37:07.838Z,12.40
2023-03-05T08:39:53.432Z,12.50
2023-03-05T08:42:20.436Z,12.50
2023-03-05T08:44:50.224Z,12.50
2023-03-05T08:47:20.501Z,12.50
2023-03-05T08:49:50.249Z,12.60
2023-03-05T08:52:35.833Z,12.60
2023-03-05T08:55:03.109Z,12.70
2023-03-05T08:57:30.161Z,12.60
2023-03-05T08:59:57.101Z,12.60
2023-03-05T09:02:24.045Z,12.60
2023-03-05T09:04:51.017Z,12.50
2023-03-05T09:07:20.838Z,12.60
2023-03-05T09:10:10.396Z,12.70
2023-03-05T09:12:37.917Z,12.70
2023-03-05T09:15:23.673Z,12.60
2023-03-05T09:17:50.714Z,12.60
2023-03-05T09:20:17.867Z,12.70
2023-03-05T09:22:44.844Z,12.80
2023-03-05T09:25:12.414Z,12.70
2023-03-05T09:27:43.908Z,12.70
2023-03-05T09:30:13.065Z,12.70
2023-03-05T09:32:40.176Z,12.80
2023-03-05T09:35:08.105Z,12.70
2023-03-05T09:37:35.042Z,12.80
2023-03-05T09:40:02.339Z,12.80
2023-03-05T09:42:45.673Z,12.90
2023-03-05T09:45:38.478Z,12.80
2023-03-05T09:48:40.892Z,12.90
2023-03-05T09:51:14.253Z,12.90
2023-03-05T09:53:51.013Z,12.90
2023-03-05T09:56:27.156Z,13.00
2023-03-05T09:59:17.652Z,13.00
2023-03-05T10:01:45.820Z,13.10
2023-03-05T10:04:42.488Z,13.00
2023-03-05T10:07:18.466Z,12.90
2023-03-05T10:09:45.541Z,12.90
2023-03-05T10:12:21.091Z,13.00
2023-03-05T10:14:49.328Z,13.10
2023-03-05T10:18:04.792Z,13.20
2023-03-05T10:20:38.695Z,13.20
2023-03-05T10:23:08.918Z,13.30
2023-03-05T10:25:38.908Z,13.30
2023-03-05T10:28:20.164Z,13.40
2023-03-05T10:31:16.854Z,13.40
2023-03-05T10:33:57.814Z,13.30
2023-03-05T10:36:44.972Z,13.30
2023-03-05T10:39:42.541Z,13.30
2023-03-05T10:42:29.613Z,13.40
2023-03-05T10:45:09.885Z,13.40
2023-03-05T10:47:45.708Z,13.20
2023-03-05T10:50:27.128Z,13.10
2023-03-05T10:53:25.761Z,13.20
2023-03-05T10:55:56.273Z,13.10
2023-03-05T10:58:25.286Z,13.20
2023-03-05T11:01:18.685Z,13.20
2023-03-05T11:03:56.482Z,13.30
2023-03-05T11:06:34.896Z,13.40
2023-03-05T11:09:29.392Z,13.50
2023-03-05T11:12:20.497Z,13.60
2023-03-05T11:15:25.249Z,13.70
2023-03-05T11:18:18.740Z,13.70
2023-03-05T11:20:46.062Z,13.80
2023-03-05T11:23:17.150Z,13.60
2023-03-05T11:26:12.806Z,13.50
2023-03-05T11:29:01.176Z,13.40
2023-03-05T11:31:31.313Z,13.40
2023-03-05T11:34:01.275Z,13.40
2023-03-05T11:36:35.684Z,13.50
2023-03-05T11:39:05.796Z,13.60
2023-03-05T11:41:55.410Z,13.60
2023-03-05T11:44:37.803Z,13.70
2023-03-05T11:47:32.128Z,13.70
2023-03-05T11:50:23.307Z,13.90
2023-03-05T11:53:13.166Z,13.90
2023-03-05T11:55:45.459Z,13.90
2023-03-05T11:58:21.184Z,13.80
2023-03-05T12:00:48.794Z,13.80
2023-03-05T12:03:20.180Z,13.90
2023-03-05T12:05:51.673Z,13.90
2023-03-05T12:08:33.689Z,14.00
2023-03-05T12:11:07.113Z,14.00
2023-03-05T12:13:45.414Z,14.00
2023-03-05T12:16:24.580Z,13.90
2023-03-05T12:19:09.715Z,13.90
2023-03-05T12:21:41.855Z,13.90
2023-03-05T12:24:27.335Z,13.90
2023-03-05T12:27:09.299Z,13.90
2023-03-05T12:29:46.862Z,13.90
2023-03-05T12:32:23.192Z,13.90
2023-03-05T12:35:47.154Z,13.90
2023-03-05T12:38:29.255Z,13.80
2023-03-05T12:41:23.539Z,13.80
2023-03-05T12:44:05.965Z,13.80
2023-03-05T12:46:40.682Z,13.80
2023-03-05T12:49:23.535Z,13.80
2023-03-05T12:51:53.565Z,13.90
2023-03-05T12:54:39.872Z,13.90
2023-03-05T12:57:29.513Z,13.90
2023-03-05T13:00:12.060Z,13.80
2023-03-05T13:02:46.258Z,13.70
2023-03-05T13:05:28.663Z,13.60
2023-03-05T13:08:17.088Z,13.50
2023-03-05T13:10:52.380Z,13.20
2023-03-05T13:13:20.715Z,13.20
2023-03-05T13:15:50.539Z,13.10
2023-03-05T13:18:23.926Z,13.10
2023-03-05T13:21:02.271Z,13.10
2023-03-05T13:23:29.420Z,13.20
2023-03-05T13:26:04.318Z,13.10
2023-03-05T13:28:32.704Z,13.20
2023-03-05T13:31:11.324Z,13.20
2023-03-05T13:33:38.563Z,13.10
2023-03-05T13:36:06.643Z,13.20
2023-03-05T13:38:39.402Z,13.30
2023-03-05T13:41:09.299Z,13.50
2023-03-05T13:44:03.075Z,13.60
2023-03-05T13:46:31.585Z,13.70
2023-03-05T13:49:26.358Z,13.80
2023-03-05T13:51:55.970Z,13.70
2023-03-05T13:54:25.162Z,13.60
2023-03-05T13:56:56.754Z,13.60
2023-03-05T13:59:26.033Z,13.60
2023-03-05T14:01:53.486Z,13.50
2023-03-05T14:04:29.777Z,13.40
2023-03-05T14:07:05.985Z,13.30
2023-03-05T14:09:53.598Z,13.30
2023-03-05T14:12:41.035Z,13.20
2023-03-05T14:15:30.360Z,13.10
2023-03-05T14:18:12.472Z,12.90
2023-03-05T14:20:59.144Z,12.90
2023-03-05T14:23:35.748Z,12.90
2023-03-05T14:26:33.858Z,13.00
2023-03-05T14:29:21.761Z,12.90
2023-03-05T14:31:56.790Z,12.80
2023-03-05T14:34:35.392Z,12.70
2023-03-05T14:37:21.218Z,12.60
2023-03-05T14:39:56.522Z,12.60
2023-03-05T14:42:31.425Z,12.70
2023-03-05T14:45:14.547Z,12.80
2023-03-05T14:48:01.934Z,12.90
2023-03-05T14:50:47.617Z,12.90
2023-03-05T14:53:25.867Z,13.00
2023-03-05T14:55:58.161Z,12.90
2023-03-05T14:58:41.760Z,12.80
2023-03-05T15:01:27.760Z,12.60
2023-03-05T15:03:54.841Z,12.60
2023-03-05T15:06:38.155Z,12.70
2023-03-05T15:09:06.413Z,12.80
2023-03-05T15:11:34.085Z,12.90
2023-03-05T15:14:01.311Z,13.00
2023-03-05T15:16:28.312Z,12.80
2023-03-05T15:18:55.319Z,12.70
2023-03-05T15:21:22.333Z,12.80
2023-03-05T15:23:58.263Z,12.90
2023-03-05T15:26:25.272Z,12.90
2023-03-05T15:28:52.416Z,13.00
2023-03-05T15:31:19.568Z,13.10
2023-03-05T15:33:46.667Z,13.20
2023-03-05T15:36:16.468Z,13.20
2023-03-05T15:39:02.101Z,13.20
2023-03-05T15:41:29.400Z,13.20
2023-03-05T15:43:56.437Z,13.30
2023-03-05T15:46:23.794Z,13.30
2023-03-05T15:48:51.040Z,13.30
2023-03-05T15:51:36.709Z,13.40
2023-03-05T15:54:03.828Z,13.30
2023-03-05T15:56:30.918Z,13.40
2023-03-05T15:58:58.076Z,13.30
2023-03-05T16:01:25.306Z,13.30
2023-03-05T16:03:55.189Z,13.20
2023-03-05T16:06:24.000Z,13.10
2023-03-05T16:08:55.757Z,13.10
2023-03-05T16:11:23.076Z,13.00
2023-03-05T16:13:50.572Z,12.80
2023-03-05T16:16:18.549Z,12.80
2023-03-05T16:18:46.894Z,12.80
2023-03-05T16:21:23.178Z,12.70
2023-03-05T16:23:50.316Z,12.70
2023-03-05T16:26:17.460Z,12.70
2023-03-05T16:28:44.772Z,12.80
2023-03-05T16:31:21.023Z,12.80
2023-03-05T16:33:48.392Z,12.90
2023-03-05T16:36:25.442Z,12.90
2023-03-05T16:38:54.999Z,12.90
2023-03-05T16:41:24.378Z,12.90
2023-03-05T16:43:53.616Z,12.80
2023-03-05T16:46:29.517Z,12.70
2023-03-05T16:48:56.936Z,12.60
2023-03-05T16:51:24.057Z,12.60
2023-03-05T16:53:51.057Z,12.70
2023-03-05T16:56:18.446Z,12.70
2023-03-05T16:58:45.441Z,12.70
2023-03-05T17:01:15.520Z,12.70
2023-03-05T17:03:43.647Z,12.80
2023-03-05T17:06:19.581Z,12.80
2023-03-05T17:09:05.092Z,12.80
2023-03-05T17:11:32.396Z,12.80
2023-03-05T17:13:59.428Z,12.80
2023-03-05T17:16:26.469Z,12.80
2023-03-05T17:18:53.932Z,12.80
2023-03-05T17:21:23.936Z,12.70
2023-03-05T17:23:54.597Z,12.60
2023-03-05T17:26:21.891Z,12.70
2023-03-05T17:29:07.560Z,12.70
2023-03-05T17:31:34.672Z,12.70
2023-03-05T17:34:01.758Z,12.70
2023-03-05T17:36:32.272Z,12.70
2023-03-05T17:38:59.304Z,12.70
2023-03-05T17:41:28.842Z,12.70
2023-03-05T17:43:55.907Z,12.70
2023-03-05T17:46:22.963Z,12.70
2023-03-05T17:49:09.028Z,12.70
2023-03-05T17:51:37.853Z,12.70
2023-03-05T17:54:05.926Z,12.70
2023-03-05T17:56:33.139Z,12.70
2023-03-05T17:59:00.519Z,12.60
2023-03-05T18:01:32.724Z,12.70
2023-03-05T18:04:19.333Z,12.70
2023-03-05T18:06:46.432Z,12.60
2023-03-05T18:09:14.279Z,12.60
2023-03-05T18:11:41.422Z,12.70
2023-03-05T18:14:08.426Z,12.70
2023-03-05T18:16:35.649Z,12.60
2023-03-05T18:19:02.620Z,12.60
2023-03-05T18:21:29.562Z,12.60
2023-03-05T18:23:56.489Z,12.50
2023-03-05T18:26:26.408Z,12.50
2023-03-05T18:29:11.961Z,12.50
2023-03-05T18:31:38.930Z,12.50
2023-03-05T18:34:25.785Z,12.50
2023-03-05T18:36:53.335Z,12.40
2023-03-05T18:39:39.037Z,12.50
2023-03-05T18:42:06.384Z,12.50
2023-03-05T18:44:33.338Z,12.50
2023-03-05T18:47:00.345Z,12.50
2023-03-05T18:49:28.759Z,12.50
2023-03-05T18:51:55.955Z,12.50
2023-03-05T18:54:22.941Z,12.50
2023-03-05T18:56:49.984Z,12.50
2023-03-05T18:59:16.874Z,12.50
2023-03-05T19:01:44.475Z,12.50
2023-03-05T19:04:11.575Z,12.50
2023-03-05T19:06:38.992Z,12.50
2023-03-05T19:10:02.394Z,12.50
2023-03-05T19:12:35.223Z,12.50
2023-03-05T19:15:04.506Z,12.50
2023-03-05T19:17:32.777Z,12.50
2023-03-05T19:20:00.213Z,12.60
2023-03-05T19:22:28.539Z,12.60
2023-03-05T19:24:55.869Z,12.60
2023-03-05T19:27:22.840Z,12.60
2023-03-05T19:29:50.170Z,12.60
2023-03-05T19:32:18.294Z,12.60
2023-03-05T19:34:45.744Z,12.60
2023-03-05T19:37:13.019Z,12.60
2023-03-05T19:39:40.470Z,12.60
2023-03-05T19:42:10.459Z,12.70
2023-03-05T19:44:37.490Z,12.70
2023-03-05T19:47:04.677Z,12.60
2023-03-05T19:49:31.672Z,12.60
2023-03-05T19:51:59.355Z,12.60
2023-03-05T19:54:26.586Z,12.60
2023-03-05T19:56:55.645Z,12.60
2023-03-05T19:59:23.119Z,12.60
2023-03-05T20:01:53.194Z,12.60
2023-03-05T20:04:38.568Z,12.50
2023-03-05T20:07:07.192Z,12.50
2023-03-05T20:09:34.277Z,12.50
2023-03-05T20:12:04.692Z,12.50
2023-03-05T20:14:50.606Z,12.50
2023-03-05T20:17:18.050Z,12.50
2023-03-05T20:19:45.104Z,12.40
2023-03-05T20:22:12.071Z,12.50
2023-03-05T20:24:39.017Z,12.40
2023-03-05T20:27:06.058Z,12.50
2023-03-05T20:29:33.006Z,12.50
2023-03-05T20:32:00.061Z,12.50
2023-03-05T20:34:45.817Z,12.60
2023-03-05T20:37:12.921Z,12.50
2023-03-05T20:39:52.976Z,12.50
2023-03-05T20:42:20.099Z,12.50
2023-03-05T20:44:47.281Z,12.50
2023-03-05T20:47:44.818Z,12.50
2023-03-05T20:50:14.561Z,12.50
2023-03-05T20:52:41.837Z,12.40
2023-03-05T20:55:28.721Z,12.40
2023-03-05T20:57:56.997Z,12.40
2023-03-05T21:00:25.130Z,12.50
2023-03-05T21:02:54.721Z,12.50
2023-03-05T21:05:27.120Z,12.50
2023-03-05T21:07:54.228Z,12.50
2023-03-05T21:10:21.444Z,12.50
2023-03-05T21:12:50.478Z,12.50
2023-03-05T21:15:20.140Z,12.50
2023-03-05T21:17:47.718Z,12.40
2023-03-05T21:20:19.178Z,12.40
2023-03-05T21:22:46.254Z,12.40
2023-03-05T21:25:22.323Z,12.40
2023-03-05T21:28:12.237Z,12.40
2023-03-05T21:30:51.764Z,12.40
2023-03-05T21:33:30.028Z,12.40
2023-03-05T21:35:58.220Z,12.40
2023-03-05T21:38:27.263Z,12.40
2023-03-05T21:40:54.416Z,12.30
2023-03-05T21:43:24.206Z,12.30
2023-03-05T21:45:53.734Z,12.30
2023-03-05T21:48:22.167Z,12.30
2023-03-05T21:50:50.366Z,12.30
2023-03-05T21:53:19.133Z,12.30
2023-03-05T21:56:31.997Z,12.30
2023-03-05T21:59:00.588Z,12.30
2023-03-05T22:01:28.145Z,12.30
2023-03-05T22:03:55.187Z,12.20
2023-03-05T22:06:22.195Z,12.10
2023-03-05T22:08:49.326Z,12.10
2023-03-05T22:11:18.797Z,12.00
2023-03-05T22:13:46.065Z,12.00
2023-03-05T22:16:24.682Z,12.00
2023-03-05T22:18:53.438Z,12.00
2023-03-05T22:21:26.961Z,11.90
2023-03-05T22:23:57.792Z,11.80
2023-03-05T22:26:26.599Z,11.80
2023-03-05T22:28:53.628Z,11.80
2023-03-05T22:31:26.472Z,11.80
2023-03-05T22:33:54.345Z,11.80
2023-03-05T22:36:21.515Z,11.80
2023-03-05T22:38:48.586Z,11.80
2023-03-05T22:41:19.717Z,11.80
2023-03-05T22:43:48.029Z,11.80
2023-03-05T22:46:24.032Z,11.80
2023-03-05T22:48:52.231Z,11.90
2023-03-05T22:51:20.656Z,11.90
2023-03-05T22:53:47.678Z,12.00
2023-03-05T22:56:17.944Z,12.00
2023-03-05T22:58:44.917Z,11.90
2023-03-05T23:01:17.697Z,12.00
2023-03-05T23:04:44.137Z,11.90
2023-03-05T23:07:11.276Z,11.80
2023-03-05T23:09:59.969Z,11.80
2023-03-05T23:12:50.083Z,11.80
2023-03-05T23:15:26.876Z,11.70
2023-03-05T23:17:54.010Z,11.70
2023-03-05T23:20:23.764Z,11.80
2023-03-05T23:22:55.936Z,11.80
2023-03-05T23:25:26.475Z,11.80
2023-03-05T23:27:53.871Z,11.90
2023-03-05T23:30:27.198Z,11.80
2023-03-05T23:33:07.307Z,11.80
2023-03-05T23:35:38.643Z,11.80
2023-03-05T23:38:08.608Z,11.90
2023-03-05T23:40:39.873Z,11.90
2023-03-05T23:43:25.850Z,11.90
2023-03-05T23:45:55.087Z,12.00
2023-03-05T23:48:41.412Z,12.00
2023-03-05T23:51:10.508Z,12.00
2023-03-05T23:53:37.819Z,12.00
2023-03-05T23:56:10.135Z,12.00
2023-03-05T23:58:38.332Z,12.00
